createdAt,value
2023-03-29T00:00:25.344Z,93187.00
2023-03-29T00:01:35.652Z,93185.00
2023-03-29T00:02:26.549Z,93183.00
2023-03-29T00:03:25.397Z,93185.00
2023-03-29T00:04:25.306Z,93189.00
2023-03-29T00:05:25.307Z,93193.00
2023-03-29T00:06:25.281Z,93206.00
2023-03-29T00:07:25.268Z,93210.00
2023-03-29T00:08:25.257Z,93206.00
2023-03-29T00:09:25.276Z,93208.00
2023-03-29T00:10:25.282Z,93206.00
2023-03-29T00:11:25.325Z,93204.00
2023-03-29T00:12:25.384Z,93203.00
2023-03-29T00:13:25.440Z,93204.00
2023-03-29T00:14:25.503Z,93212.00
2023-03-29T00:15:25.564Z,93216.00
2023-03-29T00:16:25.676Z,93224.00
2023-03-29T00:17:25.723Z,93224.00
2023-03-29T00:18:25.730Z,93220.00
2023-03-29T00:19:25.794Z,93218.00
2023-03-29T00:20:25.852Z,93214.00
2023-03-29T00:21:25.903Z,93208.00
2023-03-29T00:22:25.970Z,93204.00
2023-03-29T00:23:26.010Z,93206.00
2023-03-29T00:24:26.118Z,93204.00
2023-03-29T00:25:26.916Z,93203.00
2023-03-29T00:26:26.200Z,93199.00
2023-03-29T00:27:26.253Z,93204.00
2023-03-29T00:28:26.311Z,93208.00
2023-03-29T00:29:26.354Z,93210.00
2023-03-29T00:30:26.405Z,93208.00
2023-03-29T00:31:26.527Z,93212.00
2023-03-29T00:32:26.951Z,93214.00
2023-03-29T00:33:26.539Z,93222.00
2023-03-29T00:34:26.592Z,93220.00
2023-03-29T00:35:26.683Z,93226.00
2023-03-29T00:36:26.686Z,93228.00
2023-03-29T00:37:26.824Z,93234.00
2023-03-29T00:38:26.820Z,93234.00
2023-03-29T00:39:26.876Z,93238.00
2023-03-29T00:40:26.935Z,93236.00
2023-03-29T00:41:26.998Z,93236.00
2023-03-29T00:42:27.063Z,93238.00
2023-03-29T00:43:27.145Z,93242.00
2023-03-29T00:44:27.176Z,93246.00
2023-03-29T00:45:27.240Z,93246.00
2023-03-29T00:46:27.333Z,93244.00
2023-03-29T00:47:27.410Z,93248.00
2023-03-29T00:48:27.434Z,93252.00
2023-03-29T00:49:27.494Z,93256.00
2023-03-29T00:50:27.551Z,93258.00
2023-03-29T00:51:27.612Z,93256.00
2023-03-29T00:52:27.673Z,93258.00
2023-03-29T00:53:27.723Z,93259.00
2023-03-29T00:54:27.777Z,93263.00
2023-03-29T00:55:27.854Z,93267.00
2023-03-29T00:56:27.905Z,93263.00
2023-03-29T00:57:28.032Z,93263.00
2023-03-29T00:58:28.062Z,93265.00
2023-03-29T00:59:28.088Z,93267.00
2023-03-29T01:00:28.157Z,93269.00
2023-03-29T01:01:28.348Z,93265.00
2023-03-29T01:02:28.311Z,93271.00
2023-03-29T01:03:28.954Z,93265.00
2023-03-29T01:04:28.478Z,93263.00
2023-03-29T01:05:28.456Z,93261.00
2023-03-29T01:06:28.526Z,93256.00
2023-03-29T01:07:28.589Z,93259.00
2023-03-29T01:08:28.642Z,93254.00
2023-03-29T01:09:28.681Z,93254.00
2023-03-29T01:10:28.755Z,93254.00
2023-03-29T01:11:28.795Z,93254.00
2023-03-29T01:12:28.815Z,93252.00
2023-03-29T01:13:28.858Z,93250.00
2023-03-29T01:14:28.904Z,93258.00
2023-03-29T01:15:29.060Z,93258.00
2023-03-29T01:16:29.068Z,93256.00
2023-03-29T01:17:29.072Z,93256.00
2023-03-29T01:18:29.140Z,93258.00
2023-03-29T01:19:29.189Z,93254.00
2023-03-29T01:20:29.243Z,93256.00
2023-03-29T01:21:29.326Z,93259.00
2023-03-29T01:22:29.359Z,93259.00
2023-03-29T01:23:29.417Z,93259.00
2023-03-29T01:24:29.485Z,93259.00
2023-03-29T01:25:29.591Z,93259.00
2023-03-29T01:26:29.594Z,93258.00
2023-03-29T01:27:29.665Z,93256.00
2023-03-29T01:28:29.730Z,93256.00
2023-03-29T01:29:29.867Z,93258.00
2023-03-29T01:30:29.853Z,93258.00
2023-03-29T01:31:29.941Z,93258.00
2023-03-29T01:32:30.006Z,93258.00
2023-03-29T01:33:30.036Z,93258.00
2023-03-29T01:34:30.088Z,93258.00
2023-03-29T01:35:30.158Z,93259.00
2023-03-29T01:36:30.277Z,93265.00
2023-03-29T01:37:30.269Z,93267.00
2023-03-29T01:38:30.336Z,93269.00
2023-03-29T01:39:30.437Z,93269.00
2023-03-29T01:40:30.472Z,93269.00
2023-03-29T01:41:30.539Z,93271.00
2023-03-29T01:42:30.573Z,93271.00
2023-03-29T01:43:30.615Z,93269.00
2023-03-29T01:44:30.696Z,93269.00
2023-03-29T01:45:30.746Z,93269.00
2023-03-29T01:46:30.846Z,93269.00
2023-03-29T01:47:30.887Z,93271.00
2023-03-29T01:48:30.929Z,93265.00
2023-03-29T01:49:30.989Z,93263.00
2023-03-29T01:50:31.062Z,93269.00
2023-03-29T01:51:31.988Z,93267.00
2023-03-29T01:52:31.164Z,93263.00
2023-03-29T01:53:31.220Z,93265.00
2023-03-29T01:54:31.286Z,93256.00
2023-03-29T01:55:31.337Z,93250.00
2023-03-29T01:56:31.386Z,93250.00
2023-03-29T01:57:31.460Z,93252.00
2023-03-29T01:58:31.505Z,93256.00
2023-03-29T01:59:31.566Z,93258.00
2023-03-29T02:00:31.631Z,93259.00
2023-03-29T02:01:32.650Z,93259.00
2023-03-29T02:02:31.880Z,93258.00
2023-03-29T02:03:31.879Z,93258.00
2023-03-29T02:04:31.869Z,93252.00
2023-03-29T02:05:31.938Z,93252.00
2023-03-29T02:06:31.995Z,93242.00
2023-03-29T02:07:32.049Z,93232.00
2023-03-29T02:08:32.124Z,93234.00
2023-03-29T02:09:32.196Z,93226.00
2023-03-29T02:10:32.228Z,93226.00
2023-03-29T02:11:32.287Z,93226.00
2023-03-29T02:12:32.356Z,93234.00
2023-03-29T02:13:32.409Z,93238.00
2023-03-29T02:14:32.460Z,93248.00
2023-03-29T02:15:32.548Z,93244.00
2023-03-29T02:16:32.578Z,93234.00
2023-03-29T02:17:32.671Z,93236.00
2023-03-29T02:18:32.699Z,93238.00
2023-03-29T02:19:32.965Z,93240.00
2023-03-29T02:20:32.814Z,93236.00
2023-03-29T02:21:32.868Z,93236.00
2023-03-29T02:22:32.932Z,93236.00
2023-03-29T02:23:33.006Z,93240.00
2023-03-29T02:24:33.096Z,93236.00
2023-03-29T02:25:33.101Z,93232.00
2023-03-29T02:26:33.157Z,93232.00
2023-03-29T02:27:33.218Z,93226.00
2023-03-29T02:28:33.299Z,93224.00
2023-03-29T02:29:33.342Z,93220.00
2023-03-29T02:30:33.408Z,93218.00
2023-03-29T02:31:33.492Z,93210.00
2023-03-29T02:32:33.557Z,93218.00
2023-03-29T02:33:33.584Z,93222.00
2023-03-29T02:34:33.639Z,93222.00
2023-03-29T02:35:33.718Z,93212.00
2023-03-29T02:36:33.768Z,93208.00
2023-03-29T02:37:33.807Z,93214.00
2023-03-29T02:38:33.888Z,93208.00
2023-03-29T02:39:33.917Z,93208.00
2023-03-29T02:40:34.000Z,93214.00
2023-03-29T02:41:34.049Z,93218.00
2023-03-29T02:42:34.094Z,93214.00
2023-03-29T02:43:34.215Z,93214.00
2023-03-29T02:44:34.225Z,93212.00
2023-03-29T02:45:34.292Z,93216.00
2023-03-29T02:46:34.524Z,93206.00
2023-03-29T02:47:34.409Z,93210.00
2023-03-29T02:48:34.473Z,93216.00
2023-03-29T02:49:34.524Z,93214.00
2023-03-29T02:50:34.581Z,93224.00
2023-03-29T02:51:34.644Z,93224.00
2023-03-29T02:52:35.463Z,93228.00
2023-03-29T02:53:34.762Z,93238.00
2023-03-29T02:54:34.820Z,93244.00
2023-03-29T02:55:34.980Z,93240.00
2023-03-29T02:56:34.932Z,93238.00
2023-03-29T02:57:35.055Z,93234.00
2023-03-29T02:58:35.060Z,93236.00
2023-03-29T02:59:35.120Z,93232.00
2023-03-29T03:00:35.170Z,93216.00
2023-03-29T03:01:35.291Z,93214.00
2023-03-29T03:02:35.384Z,93216.00
2023-03-29T03:03:35.425Z,93214.00
2023-03-29T03:04:35.367Z,93214.00
2023-03-29T03:05:35.424Z,93208.00
2023-03-29T03:06:35.470Z,93204.00
2023-03-29T03:07:35.511Z,93203.00
2023-03-29T03:08:35.560Z,93206.00
2023-03-29T03:09:35.596Z,93218.00
2023-03-29T03:10:35.656Z,93224.00
2023-03-29T03:11:35.680Z,93230.00
2023-03-29T03:12:35.719Z,93232.00
2023-03-29T03:13:35.771Z,93224.00
2023-03-29T03:14:35.812Z,93218.00
2023-03-29T03:15:35.919Z,93218.00
2023-03-29T03:16:35.911Z,93222.00
2023-03-29T03:17:35.954Z,93222.00
2023-03-29T03:18:35.939Z,93228.00
2023-03-29T03:19:35.961Z,93222.00
2023-03-29T03:20:36.981Z,93222.00
2023-03-29T03:21:36.024Z,93216.00
2023-03-29T03:22:36.059Z,93212.00
2023-03-29T03:23:36.088Z,93208.00
2023-03-29T03:24:36.111Z,93208.00
2023-03-29T03:25:36.139Z,93201.00
2023-03-29T03:26:36.157Z,93208.00
2023-03-29T03:27:36.182Z,93212.00
2023-03-29T03:28:36.210Z,93216.00
2023-03-29T03:29:36.240Z,93214.00
2023-03-29T03:30:36.984Z,93204.00
2023-03-29T03:31:36.343Z,93201.00
2023-03-29T03:32:36.364Z,93197.00
2023-03-29T03:33:36.321Z,93189.00
2023-03-29T03:34:36.342Z,93187.00
2023-03-29T03:35:36.375Z,93185.00
2023-03-29T03:36:36.500Z,93191.00
2023-03-29T03:37:36.406Z,93191.00
2023-03-29T03:38:36.427Z,93193.00
2023-03-29T03:39:36.433Z,93201.00
2023-03-29T03:40:36.441Z,93197.00
2023-03-29T03:41:36.517Z,93197.00
2023-03-29T03:42:36.464Z,93189.00
2023-03-29T03:43:36.487Z,93177.00
2023-03-29T03:44:36.487Z,93177.00
2023-03-29T03:45:36.526Z,93187.00
2023-03-29T03:46:36.505Z,93193.00
2023-03-29T03:47:36.516Z,93201.00
2023-03-29T03:48:36.525Z,93201.00
2023-03-29T03:49:36.526Z,93191.00
2023-03-29T03:50:36.536Z,93187.00
2023-03-29T03:51:36.539Z,93181.00
2023-03-29T03:52:36.540Z,93179.00
2023-03-29T03:53:36.560Z,93175.00
2023-03-29T03:54:36.559Z,93175.00
2023-03-29T03:55:36.564Z,93179.00
2023-03-29T03:56:36.561Z,93181.00
2023-03-29T03:57:36.994Z,93179.00
2023-03-29T03:58:36.574Z,93173.00
2023-03-29T03:59:36.569Z,93167.00
2023-03-29T04:00:36.580Z,93159.00
2023-03-29T04:01:36.576Z,93163.00
2023-03-29T04:02:36.727Z,93167.00
2023-03-29T04:03:36.702Z,93179.00
2023-03-29T04:04:36.652Z,93185.00
2023-03-29T04:05:36.618Z,93193.00
2023-03-29T04:06:36.629Z,93201.00
2023-03-29T04:07:36.633Z,93201.00
2023-03-29T04:08:36.649Z,93195.00
2023-03-29T04:09:36.659Z,93195.00
2023-03-29T04:10:36.661Z,93191.00
2023-03-29T04:11:36.678Z,93185.00
2023-03-29T04:12:36.684Z,93183.00
2023-03-29T04:13:36.697Z,93185.00
2023-03-29T04:14:36.707Z,93183.00
2023-03-29T04:15:36.718Z,93181.00
2023-03-29T04:16:36.722Z,93183.00
2023-03-29T04:17:36.811Z,93181.00
2023-03-29T04:18:36.822Z,93177.00
2023-03-29T04:19:36.749Z,93179.00
2023-03-29T04:20:36.761Z,93181.00
2023-03-29T04:21:36.777Z,93187.00
2023-03-29T04:22:36.780Z,93183.00
2023-03-29T04:23:36.805Z,93185.00
2023-03-29T04:24:36.805Z,93177.00
2023-03-29T04:25:36.815Z,93173.00
2023-03-29T04:26:36.848Z,93175.00
2023-03-29T04:27:36.871Z,93177.00
2023-03-29T04:28:36.898Z,93167.00
2023-03-29T04:29:37.011Z,93161.00
2023-03-29T04:30:36.902Z,93159.00
2023-03-29T04:31:36.943Z,93159.00
2023-03-29T04:32:36.949Z,93161.00
2023-03-29T04:33:36.998Z,93161.00
2023-03-29T04:34:36.954Z,93156.00
2023-03-29T04:35:37.031Z,93152.00
2023-03-29T04:36:36.984Z,93150.00
2023-03-29T04:37:36.997Z,93148.00
2023-03-29T04:38:37.010Z,93150.00
2023-03-29T04:39:37.023Z,93152.00
2023-03-29T04:40:37.042Z,93156.00
2023-03-29T04:41:37.056Z,93163.00
2023-03-29T04:42:37.075Z,93167.00
2023-03-29T04:43:39.725Z,93167.00
2023-03-29T04:44:37.125Z,93167.00
2023-03-29T04:45:37.075Z,93167.00
2023-03-29T04:46:37.159Z,93165.00
2023-03-29T04:47:37.064Z,93161.00
2023-03-29T04:48:37.065Z,93161.00
2023-03-29T04:49:37.045Z,93161.00
2023-03-29T04:50:37.042Z,93171.00
2023-03-29T04:51:37.046Z,93175.00
2023-03-29T04:52:37.032Z,93173.00
2023-03-29T04:53:37.014Z,93171.00
2023-03-29T04:54:37.009Z,93175.00
2023-03-29T04:55:37.003Z,93177.00
2023-03-29T04:56:36.993Z,93177.00
2023-03-29T04:57:37.053Z,93175.00
2023-03-29T04:58:36.984Z,93171.00
2023-03-29T04:59:36.983Z,93165.00
2023-03-29T05:00:36.974Z,93165.00
2023-03-29T05:01:37.055Z,93167.00
2023-03-29T05:02:37.001Z,93167.00
2023-03-29T05:03:36.952Z,93165.00
2023-03-29T05:04:36.985Z,93165.00
2023-03-29T05:05:36.937Z,93161.00
2023-03-29T05:06:37.011Z,93154.00
2023-03-29T05:07:36.926Z,93161.00
2023-03-29T05:08:36.917Z,93165.00
2023-03-29T05:09:36.914Z,93163.00
2023-03-29T05:10:36.905Z,93165.00
2023-03-29T05:11:36.902Z,93167.00
2023-03-29T05:12:36.943Z,93165.00
2023-03-29T05:13:36.895Z,93161.00
2023-03-29T05:14:36.877Z,93156.00
2023-03-29T05:15:37.162Z,93157.00
2023-03-29T05:16:36.893Z,93157.00
2023-03-29T05:17:36.875Z,93167.00
2023-03-29T05:18:36.850Z,93175.00
2023-03-29T05:19:36.840Z,93179.00
2023-03-29T05:20:36.837Z,93183.00
2023-03-29T05:21:36.904Z,93181.00
2023-03-29T05:22:36.811Z,93179.00
2023-03-29T05:23:36.809Z,93169.00
2023-03-29T05:24:36.809Z,93169.00
2023-03-29T05:25:36.791Z,93169.00
2023-03-29T05:26:36.795Z,93167.00
2023-03-29T05:27:36.784Z,93165.00
2023-03-29T05:28:36.769Z,93161.00
2023-03-29T05:29:36.798Z,93161.00
2023-03-29T05:30:36.764Z,93156.00
2023-03-29T05:31:36.801Z,93163.00
2023-03-29T05:32:36.881Z,93161.00
2023-03-29T05:33:36.755Z,93157.00
2023-03-29T05:34:36.735Z,93159.00
2023-03-29T05:35:36.737Z,93163.00
2023-03-29T05:36:36.716Z,93165.00
2023-03-29T05:37:36.708Z,93163.00
2023-03-29T05:38:36.735Z,93161.00
2023-03-29T05:39:37.864Z,93159.00
2023-03-29T05:40:36.692Z,93163.00
2023-03-29T05:41:36.689Z,93159.00
2023-03-29T05:42:36.734Z,93169.00
2023-03-29T05:43:36.674Z,93169.00
2023-03-29T05:44:36.680Z,93163.00
2023-03-29T05:45:36.709Z,93165.00
2023-03-29T05:46:36.708Z,93163.00
2023-03-29T05:47:36.755Z,93167.00
2023-03-29T05:48:36.719Z,93163.00
2023-03-29T05:49:36.722Z,93167.00
2023-03-29T05:50:36.755Z,93167.00
2023-03-29T05:51:36.820Z,93163.00
2023-03-29T05:52:36.862Z,93171.00
2023-03-29T05:53:36.916Z,93177.00
2023-03-29T05:54:36.979Z,93173.00
2023-03-29T05:55:37.042Z,93177.00
2023-03-29T05:56:37.065Z,93177.00
2023-03-29T05:57:37.072Z,93177.00
2023-03-29T05:58:37.073Z,93171.00
2023-03-29T05:59:37.207Z,93175.00
2023-03-29T06:00:37.079Z,93177.00
2023-03-29T06:01:37.082Z,93173.00
2023-03-29T06:02:37.180Z,93171.00
2023-03-29T06:03:37.351Z,93167.00
2023-03-29T06:04:37.391Z,93167.00
2023-03-29T06:05:37.393Z,93177.00
2023-03-29T06:06:38.041Z,93171.00
2023-03-29T06:07:37.373Z,93161.00
2023-03-29T06:08:37.403Z,93157.00
2023-03-29T06:09:37.434Z,93156.00
2023-03-29T06:10:37.471Z,93163.00
2023-03-29T06:11:37.498Z,93165.00
2023-03-29T06:12:37.645Z,93161.00
2023-03-29T06:13:37.534Z,93167.00
2023-03-29T06:14:38.054Z,93163.00
2023-03-29T06:15:37.550Z,93163.00
2023-03-29T06:16:37.694Z,93159.00
2023-03-29T06:17:37.684Z,93146.00
2023-03-29T06:18:37.584Z,93152.00
2023-03-29T06:19:37.584Z,93152.00
2023-03-29T06:20:37.588Z,93154.00
2023-03-29T06:21:37.587Z,93156.00
2023-03-29T06:22:37.590Z,93171.00
2023-03-29T06:23:37.622Z,93171.00
2023-03-29T06:24:37.611Z,93159.00
2023-03-29T06:25:37.623Z,93156.00
2023-03-29T06:26:37.646Z,93161.00
2023-03-29T06:27:37.681Z,93152.00
2023-03-29T06:28:37.699Z,93152.00
2023-03-29T06:29:37.767Z,93159.00
2023-03-29T06:30:37.773Z,93156.00
2023-03-29T06:31:37.907Z,93154.00
2023-03-29T06:32:37.889Z,93159.00
2023-03-29T06:33:37.860Z,93154.00
2023-03-29T06:34:38.666Z,93161.00
2023-03-29T06:35:38.488Z,93161.00
2023-03-29T06:36:38.891Z,93161.00
2023-03-29T06:37:37.893Z,93161.00
2023-03-29T06:38:39.907Z,93152.00
2023-03-29T06:39:37.880Z,93154.00
2023-03-29T06:40:37.900Z,93152.00
2023-03-29T06:41:37.866Z,93154.00
2023-03-29T06:42:37.866Z,93148.00
2023-03-29T06:43:38.725Z,93146.00
2023-03-29T06:44:37.838Z,93156.00
2023-03-29T06:45:37.849Z,93159.00
2023-03-29T06:46:37.883Z,93159.00
2023-03-29T06:47:37.830Z,93156.00
2023-03-29T06:48:37.817Z,93163.00
2023-03-29T06:49:37.816Z,93163.00
2023-03-29T06:50:37.806Z,93159.00
2023-03-29T06:51:37.805Z,93159.00
2023-03-29T06:52:37.794Z,93167.00
2023-03-29T06:53:37.797Z,93161.00
2023-03-29T06:54:38.564Z,93152.00
2023-03-29T06:55:37.828Z,93156.00
2023-03-29T06:56:37.897Z,93159.00
2023-03-29T06:57:37.906Z,93157.00
2023-03-29T06:58:37.879Z,93156.00
2023-03-29T06:59:37.883Z,93165.00
2023-03-29T07:00:37.972Z,93171.00
2023-03-29T07:01:37.957Z,93175.00
2023-03-29T07:02:37.945Z,93167.00
2023-03-29T07:03:37.950Z,93169.00
2023-03-29T07:04:38.022Z,93163.00
2023-03-29T07:05:37.974Z,93173.00
2023-03-29T07:06:37.995Z,93163.00
2023-03-29T07:07:38.081Z,93167.00
2023-03-29T07:08:38.022Z,93165.00
2023-03-29T07:09:38.044Z,93175.00
2023-03-29T07:10:38.060Z,93177.00
2023-03-29T07:11:38.087Z,93175.00
2023-03-29T07:12:38.103Z,93187.00
2023-03-29T07:13:38.111Z,93189.00
2023-03-29T07:14:38.139Z,93189.00
2023-03-29T07:15:38.135Z,93185.00
2023-03-29T07:16:38.278Z,93195.00
2023-03-29T07:17:38.267Z,93197.00
2023-03-29T07:18:38.455Z,93191.00
2023-03-29T07:19:38.327Z,93189.00
2023-03-29T07:20:38.281Z,93195.00
2023-03-29T07:21:38.295Z,93195.00
2023-03-29T07:22:38.328Z,93203.00
2023-03-29T07:23:38.369Z,93206.00
2023-03-29T07:24:38.396Z,93197.00
2023-03-29T07:25:38.425Z,93201.00
2023-03-29T07:26:39.307Z,93203.00
2023-03-29T07:27:38.427Z,93206.00
2023-03-29T07:28:38.441Z,93204.00
2023-03-29T07:29:38.435Z,93204.00
2023-03-29T07:30:38.454Z,93195.00
2023-03-29T07:31:38.442Z,93197.00
2023-03-29T07:32:38.658Z,93201.00
2023-03-29T07:33:38.558Z,93201.00
2023-03-29T07:34:38.560Z,93199.00
2023-03-29T07:35:38.605Z,93199.00
2023-03-29T07:36:38.647Z,93197.00
2023-03-29T07:37:38.698Z,93199.00
2023-03-29T07:38:38.751Z,93185.00
2023-03-29T07:39:38.852Z,93195.00
2023-03-29T07:40:38.849Z,93197.00
2023-03-29T07:41:38.898Z,93187.00
2023-03-29T07:42:38.950Z,93187.00
2023-03-29T07:43:38.992Z,93189.00
2023-03-29T07:44:39.049Z,93191.00
2023-03-29T07:45:40.145Z,93187.00
2023-03-29T07:46:39.164Z,93189.00
2023-03-29T07:47:39.228Z,93183.00
2023-03-29T07:48:39.218Z,93189.00
2023-03-29T07:49:39.262Z,93191.00
2023-03-29T07:50:40.083Z,93195.00
2023-03-29T07:51:40.081Z,93199.00
2023-03-29T07:52:39.369Z,93189.00
2023-03-29T07:53:39.407Z,93187.00
2023-03-29T07:54:39.446Z,93191.00
2023-03-29T07:55:39.461Z,93189.00
2023-03-29T07:56:39.548Z,93197.00
2023-03-29T07:57:39.522Z,93197.00
2023-03-29T07:58:39.550Z,93187.00
2023-03-29T07:59:40.094Z,93185.00
2023-03-29T08:00:39.716Z,93181.00
2023-03-29T08:01:39.642Z,93189.00
2023-03-29T08:02:39.744Z,93197.00
2023-03-29T08:03:39.719Z,93199.00
2023-03-29T08:04:39.778Z,93195.00
2023-03-29T08:05:41.702Z,93185.00
2023-03-29T08:06:39.793Z,93181.00
2023-03-29T08:07:39.827Z,93185.00
2023-03-29T08:08:39.844Z,93189.00
2023-03-29T08:09:39.848Z,93177.00
2023-03-29T08:10:39.870Z,93175.00
2023-03-29T08:11:39.906Z,93177.00
2023-03-29T08:12:40.101Z,93179.00
2023-03-29T08:13:39.950Z,93181.00
2023-03-29T08:14:39.996Z,93181.00
2023-03-29T08:15:40.125Z,93193.00
2023-03-29T08:16:40.126Z,93189.00
2023-03-29T08:17:40.165Z,93191.00
2023-03-29T08:18:40.180Z,93189.00
2023-03-29T08:19:40.209Z,93195.00
2023-03-29T08:20:41.207Z,93187.00
2023-03-29T08:21:40.209Z,93187.00
2023-03-29T08:22:40.206Z,93191.00
2023-03-29T08:23:40.183Z,93195.00
2023-03-29T08:24:40.177Z,93197.00
2023-03-29T08:25:40.179Z,93193.00
2023-03-29T08:26:40.160Z,93189.00
2023-03-29T08:27:41.097Z,93191.00
2023-03-29T08:28:40.156Z,93189.00
2023-03-29T08:29:40.144Z,93183.00
2023-03-29T08:30:40.202Z,93185.00
2023-03-29T08:31:40.205Z,93185.00
2023-03-29T08:32:40.173Z,93175.00
2023-03-29T08:33:40.609Z,93157.00
2023-03-29T08:34:40.211Z,93165.00
2023-03-29T08:35:40.362Z,93165.00
2023-03-29T08:36:40.316Z,93165.00
2023-03-29T08:37:40.341Z,93169.00
2023-03-29T08:38:40.357Z,93171.00
2023-03-29T08:39:40.380Z,93175.00
2023-03-29T08:40:40.407Z,93175.00
2023-03-29T08:41:40.418Z,93177.00
2023-03-29T08:42:40.475Z,93187.00
2023-03-29T08:43:40.440Z,93191.00
2023-03-29T08:44:40.436Z,93199.00
2023-03-29T08:45:40.432Z,93195.00
2023-03-29T08:46:40.698Z,93199.00
2023-03-29T08:47:40.433Z,93191.00
2023-03-29T08:48:40.408Z,93195.00
2023-03-29T08:49:40.460Z,93197.00
2023-03-29T08:50:40.426Z,93199.00
2023-03-29T08:51:40.400Z,93199.00
2023-03-29T08:52:40.384Z,93191.00
2023-03-29T08:53:40.371Z,93197.00
2023-03-29T08:54:40.378Z,93189.00
2023-03-29T08:55:40.366Z,93189.00
2023-03-29T08:56:41.146Z,93187.00
2023-03-29T08:57:40.356Z,93183.00
2023-03-29T08:58:40.359Z,93187.00
2023-03-29T08:59:40.332Z,93181.00
2023-03-29T09:00:40.330Z,93183.00
2023-03-29T09:01:40.427Z,93183.00
2023-03-29T09:02:40.373Z,93181.00
2023-03-29T09:03:40.358Z,93185.00
2023-03-29T09:04:40.360Z,93179.00
2023-03-29T09:05:40.423Z,93183.00
2023-03-29T09:06:40.501Z,93175.00
2023-03-29T09:07:40.540Z,93185.00
2023-03-29T09:08:40.612Z,93191.00
2023-03-29T09:09:40.698Z,93193.00
2023-03-29T09:10:40.715Z,93203.00
2023-03-29T09:11:40.771Z,93199.00
2023-03-29T09:12:40.820Z,93189.00
2023-03-29T09:13:40.879Z,93189.00
2023-03-29T09:14:41.615Z,93185.00
2023-03-29T09:15:41.017Z,93177.00
2023-03-29T09:16:41.130Z,93189.00
2023-03-29T09:17:41.126Z,93181.00
2023-03-29T09:18:41.118Z,93181.00
2023-03-29T09:19:42.133Z,93187.00
2023-03-29T09:20:41.212Z,93191.00
2023-03-29T09:21:41.259Z,93197.00
2023-03-29T09:22:41.309Z,93197.00
2023-03-29T09:23:41.348Z,93191.00
2023-03-29T09:24:41.410Z,93191.00
2023-03-29T09:25:52.595Z,93191.00
2023-03-29T09:26:42.467Z,93189.00
2023-03-29T09:27:41.453Z,93193.00
2023-03-29T09:28:41.466Z,93193.00
2023-03-29T09:29:41.447Z,93201.00
2023-03-29T09:30:41.481Z,93203.00
2023-03-29T09:31:41.468Z,93203.00
2023-03-29T09:32:41.490Z,93206.00
2023-03-29T09:33:41.411Z,93208.00
2023-03-29T09:34:41.444Z,93208.00
2023-03-29T09:35:41.443Z,93206.00
2023-03-29T09:36:41.402Z,93204.00
2023-03-29T09:37:41.390Z,93197.00
2023-03-29T09:38:41.387Z,93195.00
2023-03-29T09:39:41.384Z,93195.00
2023-03-29T09:40:41.377Z,93193.00
2023-03-29T09:41:41.371Z,93197.00
2023-03-29T09:42:41.382Z,93195.00
2023-03-29T09:43:41.407Z,93195.00
2023-03-29T09:44:41.418Z,93203.00
2023-03-29T09:45:41.453Z,93204.00
2023-03-29T09:46:42.414Z,93203.00
2023-03-29T09:47:41.474Z,93203.00
2023-03-29T09:48:41.383Z,93199.00
2023-03-29T09:49:42.129Z,93203.00
2023-03-29T09:50:42.127Z,93203.00
2023-03-29T09:51:41.370Z,93210.00
2023-03-29T09:52:41.358Z,93214.00
2023-03-29T09:53:41.365Z,93218.00
2023-03-29T09:54:41.352Z,93203.00
2023-03-29T09:55:41.343Z,93204.00
2023-03-29T09:56:41.370Z,93206.00
2023-03-29T09:57:41.322Z,93212.00
2023-03-29T09:58:41.325Z,93216.00
2023-03-29T09:59:41.314Z,93220.00
2023-03-29T10:00:41.310Z,93218.00
2023-03-29T10:01:41.335Z,93218.00
2023-03-29T10:02:41.334Z,93222.00
2023-03-29T10:03:41.294Z,93222.00
2023-03-29T10:04:41.419Z,93226.00
2023-03-29T10:05:42.143Z,93228.00
2023-03-29T10:06:41.351Z,93228.00
2023-03-29T10:07:41.265Z,93228.00
2023-03-29T10:08:41.263Z,93224.00
2023-03-29T10:09:41.284Z,93226.00
2023-03-29T10:10:41.248Z,93226.00
2023-03-29T10:11:41.244Z,93226.00
2023-03-29T10:12:41.248Z,93218.00
2023-03-29T10:13:41.272Z,93214.00
2023-03-29T10:14:41.303Z,93218.00
2023-03-29T10:15:41.330Z,93224.00
2023-03-29T10:16:41.397Z,93226.00
2023-03-29T10:17:41.368Z,93222.00
2023-03-29T10:18:41.419Z,93218.00
2023-03-29T10:19:41.413Z,93214.00
2023-03-29T10:20:41.445Z,93214.00
2023-03-29T10:21:41.474Z,93220.00
2023-03-29T10:22:41.506Z,93218.00
2023-03-29T10:23:41.538Z,93216.00
2023-03-29T10:24:41.560Z,93216.00
2023-03-29T10:25:42.599Z,93220.00
2023-03-29T10:26:41.602Z,93220.00
2023-03-29T10:27:41.629Z,93218.00
2023-03-29T10:28:41.649Z,93218.00
2023-03-29T10:29:41.677Z,93208.00
2023-03-29T10:30:41.720Z,93208.00
2023-03-29T10:31:41.796Z,93206.00
2023-03-29T10:32:41.888Z,93212.00
2023-03-29T10:33:41.783Z,93206.00
2023-03-29T10:34:41.797Z,93199.00
2023-03-29T10:35:41.978Z,93193.00
2023-03-29T10:36:41.839Z,93195.00
2023-03-29T10:37:41.853Z,93195.00
2023-03-29T10:38:41.886Z,93191.00
2023-03-29T10:39:41.904Z,93191.00
2023-03-29T10:40:41.924Z,93191.00
2023-03-29T10:41:41.946Z,93185.00
2023-03-29T10:42:41.978Z,93189.00
2023-03-29T10:43:41.994Z,93177.00
2023-03-29T10:44:42.020Z,93181.00
2023-03-29T10:45:42.782Z,93177.00
2023-03-29T10:46:42.147Z,93181.00
2023-03-29T10:47:42.110Z,93179.00
2023-03-29T10:48:42.121Z,93177.00
2023-03-29T10:49:42.166Z,93179.00
2023-03-29T10:50:42.189Z,93189.00
2023-03-29T10:51:42.245Z,93189.00
2023-03-29T10:52:42.263Z,93179.00
2023-03-29T10:53:42.255Z,93173.00
2023-03-29T10:54:42.343Z,93177.00
2023-03-29T10:55:43.149Z,93183.00
2023-03-29T10:56:42.412Z,93189.00
2023-03-29T10:57:42.350Z,93187.00
2023-03-29T10:58:42.386Z,93183.00
2023-03-29T10:59:42.409Z,93183.00
2023-03-29T11:00:42.680Z,93187.00
2023-03-29T11:01:42.549Z,93183.00
2023-03-29T11:02:42.574Z,93181.00
2023-03-29T11:03:42.580Z,93179.00
2023-03-29T11:04:42.550Z,93183.00
2023-03-29T11:05:42.583Z,93191.00
2023-03-29T11:06:42.611Z,93197.00
2023-03-29T11:07:42.635Z,93191.00
2023-03-29T11:08:42.669Z,93187.00
2023-03-29T11:09:42.715Z,93183.00
2023-03-29T11:10:42.738Z,93191.00
2023-03-29T11:11:42.765Z,93189.00
2023-03-29T11:12:42.784Z,93189.00
2023-03-29T11:13:42.867Z,93185.00
2023-03-29T11:14:42.853Z,93185.00
2023-03-29T11:15:42.915Z,93185.00
2023-03-29T11:16:42.909Z,93181.00
2023-03-29T11:17:42.970Z,93179.00
2023-03-29T11:18:42.990Z,93175.00
2023-03-29T11:19:43.018Z,93173.00
2023-03-29T11:20:43.060Z,93171.00
2023-03-29T11:21:43.094Z,93179.00
2023-03-29T11:22:43.732Z,93179.00
2023-03-29T11:23:43.165Z,93181.00
2023-03-29T11:24:43.195Z,93179.00
2023-03-29T11:25:43.229Z,93177.00
2023-03-29T11:26:43.262Z,93179.00
2023-03-29T11:27:43.297Z,93183.00
2023-03-29T11:28:43.324Z,93183.00
2023-03-29T11:29:43.361Z,93187.00
2023-03-29T11:30:43.405Z,93187.00
2023-03-29T11:31:43.479Z,93189.00
2023-03-29T11:32:43.516Z,93189.00
2023-03-29T11:33:43.492Z,93189.00
2023-03-29T11:34:43.531Z,93191.00
2023-03-29T11:35:43.597Z,93183.00
2023-03-29T11:36:43.605Z,93185.00
2023-03-29T11:37:43.641Z,93189.00
2023-03-29T11:38:45.224Z,93189.00
2023-03-29T11:39:43.725Z,93191.00
2023-03-29T11:40:43.780Z,93187.00
2023-03-29T11:41:43.833Z,93183.00
2023-03-29T11:42:43.874Z,93181.00
2023-03-29T11:43:43.908Z,93189.00
2023-03-29T11:44:43.959Z,93191.00